Gerd Maersk — OYGM2 — position and weather

sailwx.info

Track history (hours):
 
Tides and Currents Weather Stations Pressure Air Temp Water Temp Dewpoint Dewpoint Depression Visibility Wind Speed Wind Dir Waves Ship Positions

Gerd Maersk

Last reported at 2016-Nov-27 11:30 UTC. Time now 2016-Dec-03 15:35 UTC.
Position N 35°02' E 139°43'.

Length 367 m; draft 13 m.

Type: Ship (hazmat cat A). MMSI: 220415000.

Date/timePositionNaut miles runAvg speedWind from/ knotsBaromVisibWave heightAir tempDewpointWater temp
2016-Nov-27 11:30N 35°02' E 139°43'1212.8
2016-Nov-27 10:33N 35°14' E 139°46'1111.0
2016-Nov-27 09:34N 35°24' E 139°40'0 0.4
2016-Nov-27 08:31N 35°24' E 139°41'0 0.0
2016-Nov-27 07:25N 35°24' E 139°41'0 0.0
2016-Nov-27 06:31N 35°24' E 139°41'0 0.0
2016-Nov-27 05:07N 35°24' E 139°41'0 0.0
2016-Nov-27 04:28N 35°24' E 139°41'0 0.0
2016-Nov-27 03:28N 35°24' E 139°41'0 0.0
2016-Nov-27 02:31N 35°24' E 139°41'4 4.5
2016-Nov-27 01:33N 35°20' E 139°43'1111.0
2016-Nov-27 00:33N 35°10' E 139°47'  
2016-Nov-23 11:33N 29°40' E 122°32'1514.7
2016-Nov-23 10:33N 29°47' E 122°17'1312.7
2016-Nov-23 09:33N 29°55' E 122°06'1313.3
2016-Nov-23 08:33N 29°57' E 121°51'1 0.9
2016-Nov-23 07:33N 29°57' E 121°50'0 0.0
2016-Nov-23 03:09N 29°57' E 121°50'0 0.0
2016-Nov-22 07:06N 29°57' E 121°50'0 0.0
2016-Nov-22 03:33N 29°57' E 121°50'5 4.9
2016-Nov-22 02:34N 29°59' E 121°55'3310.9
2016-Nov-21 23:33N 29°42' E 122°28'36015.4
2016-Nov-21 00:14N 24°31' E 119°06'5518.5
2016-Nov-20 21:17N 23°56' E 118°20'261 6.6
2016-Nov-19 05:33N 22°29' E 113°52'1211.3
2016-Nov-19 04:31N 22°18' E 113°48'  
Track history (hours):
 
Tides and Currents Weather Stations Pressure Air Temp Water Temp Dewpoint Dewpoint Depression Visibility Wind Speed Wind Dir Waves Ship Positions

Gerd Maersk

Last reported at 2016-Nov-27 11:30 UTC. Time now 2016-Dec-03 15:35 UTC.
Position N 35°02' E 139°43'.

Length 367 m; draft 13 m.

Type: Ship (hazmat cat A). MMSI: 220415000.

Date/timePositionNaut miles runAvg speedWind from/ knotsBaromVisibWave heightAir tempDewpointWater temp
2016-Nov-27 11:30N 35°02' E 139°43'1212.8
2016-Nov-27 10:33N 35°14' E 139°46'1111.0
2016-Nov-27 09:34N 35°24' E 139°40'0 0.4
2016-Nov-27 08:31N 35°24' E 139°41'0 0.0
2016-Nov-27 07:25N 35°24' E 139°41'0 0.0
2016-Nov-27 06:31N 35°24' E 139°41'0 0.0
2016-Nov-27 05:07N 35°24' E 139°41'0 0.0
2016-Nov-27 04:28N 35°24' E 139°41'0 0.0
2016-Nov-27 03:28N 35°24' E 139°41'0 0.0
2016-Nov-27 02:31N 35°24' E 139°41'4 4.5
2016-Nov-27 01:33N 35°20' E 139°43'1111.0
2016-Nov-27 00:33N 35°10' E 139°47'  
2016-Nov-23 11:33N 29°40' E 122°32'1514.7
2016-Nov-23 10:33N 29°47' E 122°17'1312.7
2016-Nov-23 09:33N 29°55' E 122°06'1313.3
2016-Nov-23 08:33N 29°57' E 121°51'1 0.9
2016-Nov-23 07:33N 29°57' E 121°50'0 0.0
2016-Nov-23 03:09N 29°57' E 121°50'0 0.0
2016-Nov-22 07:06N 29°57' E 121°50'0 0.0
2016-Nov-22 03:33N 29°57' E 121°50'5 4.9
2016-Nov-22 02:34N 29°59' E 121°55'3310.9
2016-Nov-21 23:33N 29°42' E 122°28'36015.4
2016-Nov-21 00:14N 24°31' E 119°06'5518.5
2016-Nov-20 21:17N 23°56' E 118°20'261 6.6
2016-Nov-19 05:33N 22°29' E 113°52'1211.3
2016-Nov-19 04:31N 22°18' E 113°48'  

Dump ship's entire track history